Time;durP1;ratioP1;P1;durP2;ratioP2;P2;SDS_P1;SDS_P2;PMS_P1;PMS_P2;Temp;Humidity;BMP_temperature;BMP_pressure;BME280_temperature;BME280_humidity;BME280_pressure;Samples;Min_cycle;Max_cycle;Signal;HPM_P1;HPM_P2
2022/03/15 00:00:19;;;;;;;16.27;6.90;;;;;;;;;;5050271;28;20025;-70
2022/03/15 00:02:45;;;;;;;14.32;6.18;;;;;;;;;;5049983;28;20013;-70
2022/03/15 00:05:10;;;;;;;15.02;6.78;;;;;;;;;;5050233;28;20027;-70
2022/03/15 00:07:35;;;;;;;22.15;7.75;;;;;;;;;;5032504;28;20025;-70
2022/03/15 00:10:01;;;;;;;17.38;6.50;;;;;;;;;;5030809;28;20036;-70
2022/03/15 00:12:28;;;;;;;15.48;7.10;;;;;;;;;;5050930;28;20021;-69
2022/03/15 00:14:53;;;;;;;19.27;7.15;;;;;;;;;;5049069;28;20039;-70
2022/03/15 00:17:20;;;;;;;14.68;6.43;;;;;;;;;;5049878;28;20385;-70
2022/03/15 00:19:45;;;;;;;17.67;7.00;;;;;;;;;;5047492;28;20385;-70
2022/03/15 00:22:11;;;;;;;15.68;6.47;;;;;;;;;;5048841;28;20017;-69
2022/03/15 00:24:37;;;;;;;20.77;6.82;;;;;;;;;;5049353;28;20273;-69
2022/03/15 00:27:03;;;;;;;14.45;7.47;;;;;;;;;;5050317;28;20020;-69
2022/03/15 00:29:29;;;;;;;18.88;6.05;;;;;;;;;;5033748;28;20039;-70
2022/03/15 00:31:54;;;;;;;16.15;6.75;;;;;;;;;;5051386;28;20091;-70
2022/03/15 00:34:19;;;;;;;10.55;5.68;;;;;;;;;;5041245;28;20033;-70
2022/03/15 00:36:45;;;;;;;16.40;6.80;;;;;;;;;;5050811;28;20048;-70
2022/03/15 00:39:10;;;;;;;13.63;6.68;;;;;;;;;;5042947;28;20021;-69
2022/03/15 00:41:36;;;;;;;11.52;6.05;;;;;;;;;;5015468;28;20025;-70
2022/03/15 00:44:01;;;;;;;14.52;6.50;;;;;;;;;;5032027;28;20017;-70
2022/03/15 00:46:26;;;;;;;19.05;6.55;;;;;;;;;;5055007;28;20033;-69
2022/03/15 00:48:51;;;;;;;18.35;6.63;;;;;;;;;;5053574;28;20064;-69
2022/03/15 00:51:16;;;;;;;14.93;6.72;;;;;;;;;;5033648;28;20435;-70
2022/03/15 00:53:42;;;;;;;15.23;6.90;;;;;;;;;;5050862;28;20047;-69
2022/03/15 00:56:07;;;;;;;17.10;6.38;;;;;;;;;;5045705;28;20294;-69
2022/03/15 00:58:32;;;;;;;11.18;5.95;;;;;;;;;;5050839;28;20035;-70
2022/03/15 01:00:57;;;;;;;11.10;5.47;;;;;;;;;;5050052;28;20440;-69
2022/03/15 01:03:23;;;;;;;12.60;6.80;;;;;;;;;;5052561;28;20031;-70
2022/03/15 01:05:48;;;;;;;16.77;7.35;;;;;;;;;;5053699;28;20024;-70
2022/03/15 01:08:14;;;;;;;21.70;6.60;;;;;;;;;;5049093;28;20056;-69
2022/03/15 01:10:40;;;;;;;20.85;7.10;;;;;;;;;;5050345;28;20082;-70
2022/03/15 01:13:06;;;;;;;17.58;8.45;;;;;;;;;;5051860;28;20017;-70
2022/03/15 01:15:35;;;;;;;18.27;7.40;;;;;;;;;;5035495;28;20534;-70
2022/03/15 01:18:00;;;;;;;16.40;7.00;;;;;;;;;;5053044;28;20024;-70
2022/03/15 01:20:26;;;;;;;15.05;6.75;;;;;;;;;;5053071;28;20029;-70
2022/03/15 01:22:51;;;;;;;14.05;6.38;;;;;;;;;;5052889;28;20024;-70
2022/03/15 01:25:16;;;;;;;18.17;6.13;;;;;;;;;;5032695;28;20482;-70
2022/03/15 01:27:41;;;;;;;13.80;6.93;;;;;;;;;;5044728;28;20021;-70
2022/03/15 01:30:07;;;;;;;14.55;6.55;;;;;;;;;;5042608;28;20370;-70
2022/03/15 01:32:32;;;;;;;15.27;6.80;;;;;;;;;;5052891;28;20012;-70
2022/03/15 01:34:57;;;;;;;17.38;7.63;;;;;;;;;;5052811;28;20017;-70
2022/03/15 01:37:23;;;;;;;15.45;6.65;;;;;;;;;;5053394;28;20135;-70
2022/03/15 01:39:48;;;;;;;17.40;6.22;;;;;;;;;;5052044;28;20053;-70
2022/03/15 01:42:13;;;;;;;22.63;8.05;;;;;;;;;;5036504;28;20385;-69
2022/03/15 01:44:44;;;;;;;17.70;7.28;;;;;;;;;;5047593;28;20044;-69
2022/03/15 01:47:09;;;;;;;12.88;6.78;;;;;;;;;;5053295;28;20025;-69
2022/03/15 01:49:34;;;;;;;28.27;7.72;;;;;;;;;;5034190;28;20028;-69
2022/03/15 01:51:59;;;;;;;11.93;6.32;;;;;;;;;;5051788;28;20120;-69
2022/03/15 01:54:25;;;;;;;17.63;7.07;;;;;;;;;;5034326;28;20078;-69
2022/03/15 01:56:50;;;;;;;14.40;7.75;;;;;;;;;;5051994;28;20017;-69
2022/03/15 01:59:16;;;;;;;15.00;7.28;;;;;;;;;;5051841;28;20025;-69
2022/03/15 02:01:42;;;;;;;13.48;7.50;;;;;;;;;;5050188;28;20021;-69
2022/03/15 02:04:08;;;;;;;24.77;8.55;;;;;;;;;;5052059;28;20017;-69
2022/03/15 02:06:36;;;;;;;17.08;6.60;;;;;;;;;;5033751;28;20029;-69
2022/03/15 02:09:14;;;;;;;19.05;7.45;;;;;;;;;;5034935;28;20087;-69
2022/03/15 02:11:43;;;;;;;15.57;7.45;;;;;;;;;;5042297;28;20567;-68
2022/03/15 02:14:08;;;;;;;20.00;8.52;;;;;;;;;;5052649;28;20091;-69
2022/03/15 02:16:34;;;;;;;16.65;7.35;;;;;;;;;;5051228;28;20021;-69
2022/03/15 02:18:59;;;;;;;15.00;6.85;;;;;;;;;;5052649;28;20013;-69
2022/03/15 02:21:25;;;;;;;20.58;8.00;;;;;;;;;;5050433;28;20377;-69
2022/03/15 02:23:51;;;;;;;14.95;7.47;;;;;;;;;;5051987;28;20045;-69
2022/03/15 02:26:16;;;;;;;12.95;7.35;;;;;;;;;;5040352;28;20035;-69
2022/03/15 02:28:41;;;;;;;16.15;7.65;;;;;;;;;;5034055;28;20041;-68
2022/03/15 02:31:07;;;;;;;19.40;7.45;;;;;;;;;;5050461;28;20032;-69
2022/03/15 02:33:32;;;;;;;18.48;7.05;;;;;;;;;;5050662;28;20460;-69
2022/03/15 02:35:57;;;;;;;15.60;7.07;;;;;;;;;;5048082;28;20041;-69
2022/03/15 02:38:22;;;;;;;18.58;8.40;;;;;;;;;;5052371;28;20119;-69
2022/03/15 02:40:47;;;;;;;17.73;6.97;;;;;;;;;;5050924;28;20032;-69
2022/03/15 02:43:12;;;;;;;12.70;5.70;;;;;;;;;;5052303;28;20028;-69
2022/03/15 02:45:38;;;;;;;18.27;8.27;;;;;;;;;;5048134;28;20087;-69
2022/03/15 02:48:03;;;;;;;18.88;8.43;;;;;;;;;;5046960;28;20048;-69
2022/03/15 02:50:29;;;;;;;17.63;7.00;;;;;;;;;;5032839;28;20016;-69
2022/03/15 02:52:55;;;;;;;14.90;7.75;;;;;;;;;;5048150;28;20438;-69
2022/03/15 02:55:20;;;;;;;21.27;7.18;;;;;;;;;;5044233;28;20025;-69
2022/03/15 02:57:45;;;;;;;15.73;7.07;;;;;;;;;;5033165;28;20116;-69
2022/03/15 03:00:10;;;;;;;22.83;6.82;;;;;;;;;;5043200;28;20022;-70
2022/03/15 03:02:36;;;;;;;18.02;6.80;;;;;;;;;;5051232;28;20021;-69
2022/03/15 03:05:01;;;;;;;16.85;7.65;;;;;;;;;;5048284;28;20457;-69
2022/03/15 03:07:26;;;;;;;16.85;7.15;;;;;;;;;;5051578;28;20025;-69
2022/03/15 03:09:52;;;;;;;19.92;7.68;;;;;;;;;;5050851;28;20477;-69
2022/03/15 03:12:18;;;;;;;27.67;7.22;;;;;;;;;;5051299;28;20432;-69
2022/03/15 03:14:46;;;;;;;22.05;8.00;;;;;;;;;;5046749;28;20107;-69
2022/03/15 03:17:12;;;;;;;16.50;6.88;;;;;;;;;;5050746;28;20017;-69
2022/03/15 03:19:38;;;;;;;24.40;7.43;;;;;;;;;;5051414;28;20020;-69
2022/03/15 03:22:03;;;;;;;19.35;7.60;;;;;;;;;;5032857;28;20028;-69
2022/03/15 03:24:29;;;;;;;17.92;7.28;;;;;;;;;;5051083;28;20389;-69
2022/03/15 03:26:54;;;;;;;20.10;6.63;;;;;;;;;;5051221;28;20481;-69
2022/03/15 03:29:21;;;;;;;16.73;7.03;;;;;;;;;;5042797;28;20558;-70
2022/03/15 03:31:46;;;;;;;18.55;7.57;;;;;;;;;;5025176;28;20077;-68
2022/03/15 03:34:12;;;;;;;14.55;7.60;;;;;;;;;;5045404;28;20104;-70
2022/03/15 03:36:38;;;;;;;22.67;7.20;;;;;;;;;;5031903;28;20037;-69
2022/03/15 03:39:04;;;;;;;14.75;6.90;;;;;;;;;;5050294;28;20060;-69
2022/03/15 03:41:29;;;;;;;21.13;7.35;;;;;;;;;;5046152;28;20500;-69
2022/03/15 03:43:54;;;;;;;17.92;6.25;;;;;;;;;;5043293;28;20122;-69
2022/03/15 03:46:20;;;;;;;14.68;6.55;;;;;;;;;;5032688;28;20029;-69
2022/03/15 03:48:45;;;;;;;16.48;6.57;;;;;;;;;;5050440;28;20025;-69
2022/03/15 03:51:11;;;;;;;19.38;6.60;;;;;;;;;;5048279;28;20025;-70
2022/03/15 03:53:36;;;;;;;15.82;6.03;;;;;;;;;;5050339;28;20108;-69
2022/03/15 03:56:01;;;;;;;14.30;6.60;;;;;;;;;;5049485;28;20112;-69
2022/03/15 03:58:27;;;;;;;18.67;7.88;;;;;;;;;;5050654;28;20027;-69
2022/03/15 04:00:52;;;;;;;17.55;7.40;;;;;;;;;;5049803;28;20024;-69
2022/03/15 04:03:17;;;;;;;17.45;6.78;;;;;;;;;;5050884;28;20059;-69
2022/03/15 04:05:45;;;;;;;22.00;7.25;;;;;;;;;;5050028;28;20104;-70
2022/03/15 04:08:11;;;;;;;23.10;7.45;;;;;;;;;;5050151;28;20021;-69
2022/03/15 04:10:37;;;;;;;20.33;6.57;;;;;;;;;;5025618;28;20026;-69
2022/03/15 04:13:03;;;;;;;15.27;6.35;;;;;;;;;;5032743;28;20043;-69
2022/03/15 04:15:32;;;;;;;15.20;5.78;;;;;;;;;;5049108;28;20477;-69
2022/03/15 04:17:58;;;;;;;21.60;7.57;;;;;;;;;;5050388;28;20063;-69
2022/03/15 04:20:23;;;;;;;26.05;9.63;;;;;;;;;;5049032;28;20045;-69
2022/03/15 04:22:48;;;;;;;14.38;6.60;;;;;;;;;;5049472;28;20118;-69
2022/03/15 04:25:14;;;;;;;21.00;7.47;;;;;;;;;;5049482;28;20013;-69
2022/03/15 04:27:39;;;;;;;12.90;6.07;;;;;;;;;;5047174;28;20032;-69
2022/03/15 04:30:05;;;;;;;11.52;5.97;;;;;;;;;;5046849;28;20028;-69
2022/03/15 04:32:30;;;;;;;17.80;6.30;;;;;;;;;;5047155;28;20086;-69
2022/03/15 04:34:56;;;;;;;15.48;6.47;;;;;;;;;;5043814;28;20350;-69
2022/03/15 04:37:23;;;;;;;10.20;5.00;;;;;;;;;;5029239;28;20028;-69
2022/03/15 04:39:48;;;;;;;13.27;6.22;;;;;;;;;;5047649;28;20017;-69
2022/03/15 04:42:13;;;;;;;13.55;5.43;;;;;;;;;;5040306;28;20366;-69
2022/03/15 04:44:39;;;;;;;17.90;5.63;;;;;;;;;;5033401;28;20032;-69
2022/03/15 04:47:04;;;;;;;12.52;5.50;;;;;;;;;;5047618;28;20510;-69
2022/03/15 04:49:29;;;;;;;14.80;5.70;;;;;;;;;;5047229;28;20021;-69
2022/03/15 04:51:54;;;;;;;13.63;5.97;;;;;;;;;;5046562;28;20079;-69
2022/03/15 04:54:20;;;;;;;13.70;5.63;;;;;;;;;;5048996;28;20029;-69
2022/03/15 04:56:45;;;;;;;11.40;4.90;;;;;;;;;;5049997;28;20104;-69
2022/03/15 04:59:10;;;;;;;11.65;5.97;;;;;;;;;;5048896;28;20052;-69
2022/03/15 05:01:35;;;;;;;21.23;7.15;;;;;;;;;;5043344;28;20017;-69
2022/03/15 05:04:01;;;;;;;17.80;5.55;;;;;;;;;;5048854;28;20529;-69
2022/03/15 05:06:26;;;;;;;17.38;5.45;;;;;;;;;;5048615;28;20040;-69
2022/03/15 05:08:51;;;;;;;19.83;6.70;;;;;;;;;;5022642;28;20044;-69
2022/03/15 05:11:18;;;;;;;13.10;5.70;;;;;;;;;;5048697;28;20051;-69
2022/03/15 05:13:45;;;;;;;15.68;6.28;;;;;;;;;;5049922;28;20028;-69
2022/03/15 05:16:12;;;;;;;15.88;6.25;;;;;;;;;;5047913;28;20078;-69
2022/03/15 05:18:39;;;;;;;16.13;6.80;;;;;;;;;;5048230;28;20028;-69
2022/03/15 05:21:04;;;;;;;15.57;6.05;;;;;;;;;;5049059;28;20017;-69
2022/03/15 05:23:29;;;;;;;24.58;7.32;;;;;;;;;;5036926;28;20233;-68
2022/03/15 05:25:55;;;;;;;15.52;5.57;;;;;;;;;;5044814;28;20115;-69
2022/03/15 05:28:20;;;;;;;15.40;5.63;;;;;;;;;;5039806;28;20502;-69
2022/03/15 05:30:46;;;;;;;20.13;6.05;;;;;;;;;;5036830;28;20170;-69
2022/03/15 05:33:11;;;;;;;12.32;5.32;;;;;;;;;;5045372;28;20488;-69
2022/03/15 05:35:36;;;;;;;14.45;5.40;;;;;;;;;;5051020;28;20041;-69
2022/03/15 05:38:01;;;;;;;13.75;5.75;;;;;;;;;;5050965;28;20029;-69
2022/03/15 05:40:26;;;;;;;17.92;6.78;;;;;;;;;;5050713;28;20040;-69
2022/03/15 05:42:52;;;;;;;19.25;6.85;;;;;;;;;;5031575;28;20009;-69
2022/03/15 05:45:17;;;;;;;12.35;6.50;;;;;;;;;;5032583;28;20489;-69
2022/03/15 05:47:42;;;;;;;19.40;6.70;;;;;;;;;;5049943;28;20018;-69
2022/03/15 05:50:08;;;;;;;15.20;6.30;;;;;;;;;;5050854;28;20414;-69
2022/03/15 05:52:33;;;;;;;14.15;6.20;;;;;;;;;;5049823;28;20086;-68
2022/03/15 05:54:58;;;;;;;13.50;5.90;;;;;;;;;;5051262;28;20017;-69
2022/03/15 05:57:23;;;;;;;12.07;6.22;;;;;;;;;;5044235;28;20323;-69
2022/03/15 05:59:49;;;;;;;19.60;6.97;;;;;;;;;;5040178;28;20047;-69
2022/03/15 06:02:14;;;;;;;14.07;5.82;;;;;;;;;;5049926;28;20028;-69
2022/03/15 06:04:39;;;;;;;14.18;6.90;;;;;;;;;;5051123;28;20029;-69
2022/03/15 06:07:05;;;;;;;18.48;6.85;;;;;;;;;;5043272;28;20497;-69
2022/03/15 06:09:31;;;;;;;18.80;7.03;;;;;;;;;;5051019;28;20104;-69
2022/03/15 06:11:56;;;;;;;13.95;6.95;;;;;;;;;;5050234;28;20025;-69
2022/03/15 06:14:22;;;;;;;12.32;5.78;;;;;;;;;;5049626;28;20021;-69
2022/03/15 06:16:47;;;;;;;20.13;6.13;;;;;;;;;;5049682;28;20033;-69
2022/03/15 06:19:12;;;;;;;16.20;5.80;;;;;;;;;;5035526;28;20017;-69
2022/03/15 06:21:39;;;;;;;15.27;5.22;;;;;;;;;;5047954;28;20132;-69
2022/03/15 06:24:05;;;;;;;11.23;5.60;;;;;;;;;;5047309;28;20029;-69
2022/03/15 06:26:30;;;;;;;13.80;4.80;;;;;;;;;;5050991;28;20025;-69
2022/03/15 06:28:58;;;;;;;15.20;5.57;;;;;;;;;;5051129;28;20029;-69
2022/03/15 06:33:51;;;;;;;16.05;4.90;;;;;;;;;;5042458;28;20479;-69
2022/03/15 06:36:16;;;;;;;23.40;5.93;;;;;;;;;;5046866;28;21889;-68
2022/03/15 06:38:42;;;;;;;20.58;4.97;;;;;;;;;;5035988;28;20016;-68
2022/03/15 06:41:10;;;;;;;15.68;4.72;;;;;;;;;;5038837;28;20021;-68
2022/03/15 06:43:36;;;;;;;11.70;4.78;;;;;;;;;;5018076;28;20442;-68
2022/03/15 06:46:01;;;;;;;15.02;4.05;;;;;;;;;;5029838;28;20425;-68
2022/03/15 06:48:26;;;;;;;9.25;4.78;;;;;;;;;;5031331;28;20068;-68
2022/03/15 06:50:53;;;;;;;14.77;3.70;;;;;;;;;;5031737;28;20021;-68
2022/03/15 06:53:19;;;;;;;12.18;3.67;;;;;;;;;;5031008;28;20442;-67
2022/03/15 06:55:44;;;;;;;10.00;4.07;;;;;;;;;;5028643;28;20037;-68
2022/03/15 06:58:09;;;;;;;12.73;3.65;;;;;;;;;;5027968;28;20021;-68
2022/03/15 07:00:34;;;;;;;15.63;3.58;;;;;;;;;;5028227;28;20032;-68
2022/03/15 07:03:00;;;;;;;16.48;3.78;;;;;;;;;;5023261;28;20035;-67
2022/03/15 07:05:25;;;;;;;7.70;3.15;;;;;;;;;;5031256;28;20458;-67
2022/03/15 07:07:50;;;;;;;15.25;2.75;;;;;;;;;;5032028;28;20104;-68
2022/03/15 07:10:17;;;;;;;18.73;3.75;;;;;;;;;;5029933;28;20021;-68
2022/03/15 07:12:43;;;;;;;11.82;3.40;;;;;;;;;;5047423;28;20529;-67
2022/03/15 07:15:10;;;;;;;13.95;3.25;;;;;;;;;;5034936;28;20101;-68
2022/03/15 07:17:35;;;;;;;13.13;3.00;;;;;;;;;;5023256;28;20053;-68
2022/03/15 07:20:01;;;;;;;15.57;3.38;;;;;;;;;;5030221;28;20348;-69
2022/03/15 07:22:27;;;;;;;9.95;3.30;;;;;;;;;;5033983;28;20028;-67
2022/03/15 07:24:52;;;;;;;12.07;3.30;;;;;;;;;;5030600;28;20013;-68
2022/03/15 07:27:21;;;;;;;11.30;2.97;;;;;;;;;;5031627;28;20433;-68
2022/03/15 07:29:46;;;;;;;12.52;2.95;;;;;;;;;;5030145;28;20543;-67
2022/03/15 07:32:11;;;;;;;13.82;3.30;;;;;;;;;;5031605;28;20120;-68
2022/03/15 07:34:36;;;;;;;13.50;3.35;;;;;;;;;;5040548;28;20029;-67
2022/03/15 07:37:02;;;;;;;9.27;2.95;;;;;;;;;;5030944;28;20021;-67
2022/03/15 07:39:27;;;;;;;6.45;2.70;;;;;;;;;;5029474;28;20013;-68
2022/03/15 07:41:53;;;;;;;19.02;3.22;;;;;;;;;;5028063;28;20017;-67
2022/03/15 07:44:18;;;;;;;8.95;3.22;;;;;;;;;;5030343;28;20464;-67
2022/03/15 07:46:48;;;;;;;14.93;3.65;;;;;;;;;;5011501;28;20025;-69
2022/03/15 07:49:17;;;;;;;13.30;3.27;;;;;;;;;;5030569;28;20013;-67
2022/03/15 07:51:43;;;;;;;11.17;3.03;;;;;;;;;;5011355;28;20040;-67
2022/03/15 07:54:08;;;;;;;7.32;2.28;;;;;;;;;;5029754;28;20264;-68
2022/03/15 07:56:33;;;;;;;8.25;2.92;;;;;;;;;;5029059;28;20025;-67
2022/03/15 07:58:58;;;;;;;10.90;2.70;;;;;;;;;;5030181;28;20013;-67
2022/03/15 08:01:23;;;;;;;12.40;2.60;;;;;;;;;;5028088;28;20268;-67
2022/03/15 08:03:49;;;;;;;7.82;2.92;;;;;;;;;;5030613;28;20264;-68
2022/03/15 08:06:14;;;;;;;8.85;3.17;;;;;;;;;;5029519;28;20133;-67
2022/03/15 08:08:40;;;;;;;11.75;3.17;;;;;;;;;;5029274;28;20052;-68
2022/03/15 08:11:07;;;;;;;10.10;3.17;;;;;;;;;;5011555;28;20597;-67
2022/03/15 08:13:34;;;;;;;9.90;2.92;;;;;;;;;;5029733;28;20014;-67
2022/03/15 08:15:59;;;;;;;12.68;3.33;;;;;;;;;;5029622;28;20047;-67
2022/03/15 08:18:24;;;;;;;10.60;3.17;;;;;;;;;;5030068;28;20021;-67
2022/03/15 08:20:49;;;;;;;17.70;3.58;;;;;;;;;;5010893;28;20017;-67
2022/03/15 08:23:17;;;;;;;8.45;2.80;;;;;;;;;;5012547;28;20036;-67
2022/03/15 08:25:42;;;;;;;12.15;3.45;;;;;;;;;;5030009;28;20025;-67
2022/03/15 08:28:07;;;;;;;12.20;3.30;;;;;;;;;;5030185;28;20010;-68
2022/03/15 08:30:32;;;;;;;9.05;3.10;;;;;;;;;;5028809;28;20432;-67
2022/03/15 08:32:57;;;;;;;11.75;2.85;;;;;;;;;;5029043;28;20207;-67
2022/03/15 08:35:23;;;;;;;7.40;3.03;;;;;;;;;;5029414;28;20021;-67
2022/03/15 08:37:50;;;;;;;12.27;3.05;;;;;;;;;;5030271;28;20021;-67
2022/03/15 08:40:19;;;;;;;14.07;3.38;;;;;;;;;;5030580;28;20025;-68
2022/03/15 08:42:44;;;;;;;11.05;3.05;;;;;;;;;;5017754;28;20063;-67
2022/03/15 08:45:10;;;;;;;10.10;2.83;;;;;;;;;;5029486;28;20057;-67
2022/03/15 08:47:36;;;;;;;8.18;2.80;;;;;;;;;;5029204;28;20861;-67
2022/03/15 08:50:01;;;;;;;16.38;2.80;;;;;;;;;;5028917;28;20099;-67
2022/03/15 08:52:26;;;;;;;10.15;2.90;;;;;;;;;;5029639;28;20022;-67
2022/03/15 08:54:51;;;;;;;11.73;3.17;;;;;;;;;;5029806;28;20028;-67
2022/03/15 08:57:17;;;;;;;11.52;2.78;;;;;;;;;;5028637;28;20535;-68
2022/03/15 08:59:43;;;;;;;7.07;2.90;;;;;;;;;;5028857;28;20026;-67
2022/03/15 09:02:12;;;;;;;8.85;2.80;;;;;;;;;;5030144;28;20486;-67
2022/03/15 09:04:37;;;;;;;7.68;3.42;;;;;;;;;;5032067;28;20026;-67
2022/03/15 09:07:02;;;;;;;11.63;2.67;;;;;;;;;;5033165;28;20033;-68
2022/03/15 09:09:27;;;;;;;8.15;2.78;;;;;;;;;;5033331;28;20025;-68
2022/03/15 09:11:53;;;;;;;12.88;3.20;;;;;;;;;;5033745;28;20100;-67
2022/03/15 09:14:18;;;;;;;9.18;2.88;;;;;;;;;;5033581;28;20072;-68
2022/03/15 09:16:43;;;;;;;19.20;3.28;;;;;;;;;;5032543;28;20030;-68
2022/03/15 09:19:09;;;;;;;5.68;2.95;;;;;;;;;;5032558;28;20026;-67
2022/03/15 09:21:35;;;;;;;4.82;2.45;;;;;;;;;;5032940;28;20362;-67
2022/03/15 09:24:00;;;;;;;16.58;5.57;;;;;;;;;;5015770;28;20029;-67
2022/03/15 09:26:26;;;;;;;10.85;3.28;;;;;;;;;;5033389;28;20025;-68
2022/03/15 09:28:51;;;;;;;11.02;3.22;;;;;;;;;;5032979;28;20025;-67
2022/03/15 09:31:16;;;;;;;11.75;4.22;;;;;;;;;;5032941;28;20033;-68
2022/03/15 09:33:43;;;;;;;7.20;3.50;;;;;;;;;;5032110;28;20036;-67
2022/03/15 09:36:08;;;;;;;11.95;3.80;;;;;;;;;;5014510;28;20473;-67
2022/03/15 09:38:33;;;;;;;9.40;3.15;;;;;;;;;;5032923;28;20017;-67
2022/03/15 09:41:01;;;;;;;26.63;2.30;;;;;;;;;;5033374;28;20386;-67
2022/03/15 09:43:26;;;;;;;8.30;3.40;;;;;;;;;;5032972;28;20032;-67
2022/03/15 09:45:52;;;;;;;13.40;4.13;;;;;;;;;;5032938;28;20025;-68
2022/03/15 09:48:18;;;;;;;24.75;4.43;;;;;;;;;;5032934;28;20025;-67
2022/03/15 09:50:46;;;;;;;27.63;6.13;;;;;;;;;;5032249;28;20014;-67
2022/03/15 09:53:12;;;;;;;14.68;3.25;;;;;;;;;;5032914;28;20033;-68
2022/03/15 09:55:37;;;;;;;13.65;3.60;;;;;;;;;;5032738;28;20464;-67
2022/03/15 09:58:03;;;;;;;12.23;3.08;;;;;;;;;;5014283;28;20021;-68
2022/03/15 10:00:29;;;;;;;12.88;3.97;;;;;;;;;;5032283;28;20332;-67
2022/03/15 10:02:54;;;;;;;5.18;2.13;;;;;;;;;;5032628;28;20020;-68
2022/03/15 10:05:20;;;;;;;16.60;3.40;;;;;;;;;;5032067;28;20033;-67
2022/03/15 10:07:45;;;;;;;6.35;2.35;;;;;;;;;;5032914;28;20032;-67
2022/03/15 10:10:12;;;;;;;8.15;2.83;;;;;;;;;;5030771;28;20470;-68
2022/03/15 10:12:38;;;;;;;7.03;3.15;;;;;;;;;;5032421;28;20032;-68
2022/03/15 10:15:16;;;;;;;7.50;2.30;;;;;;;;;;5031848;28;20087;-68
2022/03/15 10:17:45;;;;;;;10.40;3.97;;;;;;;;;;5030381;28;20086;-67
2022/03/15 10:20:13;;;;;;;10.98;3.13;;;;;;;;;;5031785;28;20071;-67
2022/03/15 10:22:48;;;;;;;13.48;3.35;;;;;;;;;;5031644;28;20025;-68
2022/03/15 10:25:14;;;;;;;12.55;3.10;;;;;;;;;;5032017;28;20159;-68
2022/03/15 10:27:39;;;;;;;10.00;3.20;;;;;;;;;;5014315;28;20120;-68
2022/03/15 10:30:05;;;;;;;10.43;3.40;;;;;;;;;;5032069;28;20029;-67
2022/03/15 10:32:30;;;;;;;6.72;3.28;;;;;;;;;;5031534;28;20037;-68
2022/03/15 10:35:09;;;;;;;5.03;2.25;;;;;;;;;;5030308;28;20596;-67
2022/03/15 10:37:35;;;;;;;6.85;1.92;;;;;;;;;;5031617;28;20029;-67
2022/03/15 10:40:01;;;;;;;10.80;2.90;;;;;;;;;;5031749;28;20018;-66
2022/03/15 10:42:26;;;;;;;7.35;2.90;;;;;;;;;;5031364;28;20022;-67
2022/03/15 10:44:51;;;;;;;10.27;2.20;;;;;;;;;;5031980;28;20028;-66
2022/03/15 10:47:17;;;;;;;6.95;2.40;;;;;;;;;;5031853;28;20322;-67
2022/03/15 10:49:50;;;;;;;10.02;2.80;;;;;;;;;;5031214;28;20029;-67
2022/03/15 10:52:41;;;;;;;12.38;3.47;;;;;;;;;;5031999;28;20049;-67
2022/03/15 10:55:13;;;;;;;13.52;3.35;;;;;;;;;;5027056;28;20102;-67
2022/03/15 10:57:49;;;;;;;2.97;1.65;;;;;;;;;;5031647;28;20500;-67
2022/03/15 11:00:15;;;;;;;7.00;1.33;;;;;;;;;;5013042;28;20022;-66
2022/03/15 11:02:45;;;;;;;10.95;2.95;;;;;;;;;;5030816;28;20028;-67
2022/03/15 11:05:10;;;;;;;3.15;0.77;;;;;;;;;;5031663;28;20017;-67
2022/03/15 11:07:41;;;;;;;9.75;3.10;;;;;;;;;;5031543;28;20047;-67
2022/03/15 11:10:14;;;;;;;6.70;2.55;;;;;;;;;;5031481;28;20029;-67
2022/03/15 11:12:53;;;;;;;4.60;2.00;;;;;;;;;;5026491;28;20096;-67
2022/03/15 11:15:19;;;;;;;1.70;1.60;;;;;;;;;;5031028;28;20545;-67
2022/03/15 11:17:46;;;;;;;4.22;1.65;;;;;;;;;;5031335;28;20051;-67
2022/03/15 11:20:11;;;;;;;4.40;1.48;;;;;;;;;;5030598;28;20614;-67
2022/03/15 11:22:36;;;;;;;10.98;2.55;;;;;;;;;;5030606;28;20025;-67
2022/03/15 11:25:02;;;;;;;9.93;3.25;;;;;;;;;;5030522;28;20092;-66
2022/03/15 11:27:30;;;;;;;10.35;3.35;;;;;;;;;;5030565;28;20470;-66
2022/03/15 11:29:57;;;;;;;8.55;2.58;;;;;;;;;;5012913;28;20075;-66
2022/03/15 11:32:22;;;;;;;6.78;2.78;;;;;;;;;;5030613;28;20112;-66
2022/03/15 11:34:48;;;;;;;2.80;2.10;;;;;;;;;;5030813;28;20121;-66
2022/03/15 11:37:14;;;;;;;11.40;3.30;;;;;;;;;;5030500;28;20478;-66
2022/03/15 11:39:39;;;;;;;8.00;3.00;;;;;;;;;;5030713;28;20025;-67
2022/03/15 11:42:08;;;;;;;11.68;2.05;;;;;;;;;;5030608;28;20140;-67
2022/03/15 11:44:39;;;;;;;7.07;2.10;;;;;;;;;;5030978;28;20045;-67
2022/03/15 11:47:04;;;;;;;6.05;2.60;;;;;;;;;;5030271;28;20071;-67
2022/03/15 11:49:42;;;;;;;4.63;1.95;;;;;;;;;;5030387;28;20025;-67
2022/03/15 11:52:19;;;;;;;7.63;3.70;;;;;;;;;;5030430;28;20025;-67
2022/03/15 11:54:50;;;;;;;9.30;2.15;;;;;;;;;;5030509;28;20026;-67
2022/03/15 11:57:23;;;;;;;13.45;3.90;;;;;;;;;;5030427;28;20028;-67
2022/03/15 11:59:50;;;;;;;10.55;4.00;;;;;;;;;;5029997;28;20044;-67
2022/03/15 12:02:29;;;;;;;7.75;3.67;;;;;;;;;;5029673;28;20036;-67
2022/03/15 12:04:58;;;;;;;11.95;3.45;;;;;;;;;;5030368;28;20048;-66
2022/03/15 12:07:43;;;;;;;10.00;3.47;;;;;;;;;;5030540;28;20017;-66
2022/03/15 12:10:08;;;;;;;13.00;3.67;;;;;;;;;;5030806;28;20021;-66
2022/03/15 12:12:34;;;;;;;17.33;3.97;;;;;;;;;;5030130;28;20025;-66
2022/03/15 12:15:10;;;;;;;11.52;3.80;;;;;;;;;;5030522;28;20026;-66
2022/03/15 12:17:39;;;;;;;12.23;4.43;;;;;;;;;;5026422;28;20386;-67
2022/03/15 12:20:12;;;;;;;16.38;4.22;;;;;;;;;;5030526;28;20088;-67
2022/03/15 12:22:38;;;;;;;16.63;3.92;;;;;;;;;;5012141;28;20045;-65
2022/03/15 12:25:04;;;;;;;13.32;5.15;;;;;;;;;;5029876;28;20140;-67
2022/03/15 12:27:30;;;;;;;9.23;4.32;;;;;;;;;;5030093;28;20022;-64
2022/03/15 12:29:56;;;;;;;17.98;5.25;;;;;;;;;;5029808;28;20048;-65
2022/03/15 12:32:22;;;;;;;10.95;4.72;;;;;;;;;;5030225;28;20090;-67
2022/03/15 12:34:55;;;;;;;11.88;4.15;;;;;;;;;;5030059;28;20025;-64
2022/03/15 12:37:34;;;;;;;17.38;4.35;;;;;;;;;;5029727;28;20049;-67
2022/03/15 12:40:00;;;;;;;10.75;4.43;;;;;;;;;;5029040;28;20029;-67
2022/03/15 12:42:26;;;;;;;13.10;3.92;;;;;;;;;;5030015;28;20025;-67
2022/03/15 12:44:52;;;;;;;12.48;5.13;;;;;;;;;;5029699;28;20017;-67
2022/03/15 12:47:22;;;;;;;10.27;4.50;;;;;;;;;;5029720;28;20513;-65
2022/03/15 12:50:06;;;;;;;9.05;4.55;;;;;;;;;;5029643;28;20135;-67
2022/03/15 12:52:49;;;;;;;13.50;5.60;;;;;;;;;;5029706;28;20026;-65
2022/03/15 12:55:19;;;;;;;18.30;5.10;;;;;;;;;;5030228;28;20018;-67
2022/03/15 12:57:45;;;;;;;13.50;4.80;;;;;;;;;;5030172;28;20116;-67
2022/03/15 13:00:11;;;;;;;18.30;4.68;;;;;;;;;;5028241;28;20096;-67
2022/03/15 13:02:37;;;;;;;11.88;5.57;;;;;;;;;;5028998;28;20370;-67
2022/03/15 13:05:15;;;;;;;10.90;5.47;;;;;;;;;;5029342;28;20009;-67
2022/03/15 13:07:40;;;;;;;14.65;4.80;;;;;;;;;;5028855;28;20028;-67
2022/03/15 13:10:08;;;;;;;19.83;5.65;;;;;;;;;;5029034;28;20021;-67
2022/03/15 13:12:33;;;;;;;18.63;7.50;;;;;;;;;;5030059;28;20029;-67
2022/03/15 13:14:59;;;;;;;11.40;3.92;;;;;;;;;;5029859;28;20022;-67
2022/03/15 13:17:24;;;;;;;7.00;3.72;;;;;;;;;;5029483;28;20033;-67
2022/03/15 13:19:51;;;;;;;7.97;4.03;;;;;;;;;;5029015;28;20017;-66
2022/03/15 13:22:25;;;;;;;10.38;4.60;;;;;;;;;;5029310;28;20172;-66
2022/03/15 13:24:50;;;;;;;21.08;5.57;;;;;;;;;;5029523;28;20091;-67
2022/03/15 13:27:16;;;;;;;13.82;4.90;;;;;;;;;;5029049;28;20083;-66
2022/03/15 13:29:41;;;;;;;9.05;4.53;;;;;;;;;;5020960;28;20172;-66
2022/03/15 13:32:06;;;;;;;8.88;4.50;;;;;;;;;;5029345;28;20492;-66
2022/03/15 13:34:33;;;;;;;17.75;5.63;;;;;;;;;;5029550;28;20028;-66
2022/03/15 13:37:04;;;;;;;14.23;6.07;;;;;;;;;;5029308;28;20038;-66
2022/03/15 13:39:30;;;;;;;12.85;5.32;;;;;;;;;;5028665;28;20022;-66
2022/03/15 13:41:56;;;;;;;11.25;5.55;;;;;;;;;;5030021;28;20576;-66
2022/03/15 13:44:22;;;;;;;23.55;5.88;;;;;;;;;;5028828;28;20520;-67
2022/03/15 13:46:50;;;;;;;7.72;3.72;;;;;;;;;;5030098;28;20101;-66
2022/03/15 13:49:22;;;;;;;4.85;1.75;;;;;;;;;;5030222;28;20028;-66
2022/03/15 13:51:48;;;;;;;11.07;4.60;;;;;;;;;;5032921;28;20037;-66
2022/03/15 13:54:14;;;;;;;14.55;5.00;;;;;;;;;;5032465;28;20434;-67
2022/03/15 13:56:48;;;;;;;10.25;4.63;;;;;;;;;;5032422;28;20032;-67
2022/03/15 13:59:17;;;;;;;13.65;5.20;;;;;;;;;;5032317;28;20512;-67
2022/03/15 14:01:43;;;;;;;16.17;7.03;;;;;;;;;;5033006;28;20024;-66
2022/03/15 14:04:10;;;;;;;14.57;5.53;;;;;;;;;;5032608;28;20100;-67
2022/03/15 14:06:39;;;;;;;9.55;3.30;;;;;;;;;;5023066;28;20025;-67
2022/03/15 14:09:04;;;;;;;14.50;3.67;;;;;;;;;;5031976;28;20078;-67
2022/03/15 14:11:32;;;;;;;11.63;4.90;;;;;;;;;;5032347;28;20374;-67
2022/03/15 14:14:08;;;;;;;12.35;4.22;;;;;;;;;;5032687;28;20029;-66
2022/03/15 14:16:34;;;;;;;12.82;5.25;;;;;;;;;;5032209;28;20362;-66
2022/03/15 14:19:00;;;;;;;13.20;5.75;;;;;;;;;;5031381;28;20025;-67
2022/03/15 14:21:26;;;;;;;16.50;5.03;;;;;;;;;;5032004;28;20094;-67
2022/03/15 14:23:59;;;;;;;14.43;6.05;;;;;;;;;;5032517;28;20482;-67
2022/03/15 14:26:28;;;;;;;13.10;5.97;;;;;;;;;;5032333;28;20143;-67
2022/03/15 14:28:57;;;;;;;13.38;5.70;;;;;;;;;;5030621;28;20026;-67
2022/03/15 14:31:30;;;;;;;14.75;6.15;;;;;;;;;;5012750;28;20022;-67